createdAt,value
2023-03-06T00:00:53.997Z,50.01
2023-03-06T00:03:22.871Z,49.92
2023-03-06T00:05:57.695Z,50.05
2023-03-06T00:08:27.020Z,50.03
2023-03-06T00:11:00.920Z,50.03
2023-03-06T00:13:35.243Z,50.05
2023-03-06T00:16:07.295Z,49.93
2023-03-06T00:18:35.995Z,50.03
2023-03-06T00:21:15.397Z,50.16
2023-03-06T00:23:50.316Z,50.09
2023-03-06T00:26:18.914Z,50.07
2023-03-06T00:28:47.634Z,50.12
2023-03-06T00:31:19.152Z,50.19
2023-03-06T00:33:49.767Z,50.16
2023-03-06T00:36:19.245Z,50.21
2023-03-06T00:38:47.394Z,50.18
2023-03-06T00:41:15.662Z,50.43
2023-03-06T00:43:44.370Z,50.69
2023-03-06T00:46:12.502Z,51.33
2023-03-06T00:48:40.820Z,52.11
2023-03-06T00:51:13.513Z,52.94
2023-03-06T00:53:42.166Z,53.81
2023-03-06T00:56:10.800Z,54.60
2023-03-06T00:58:38.907Z,55.43
2023-03-06T01:01:07.014Z,56.40
2023-03-06T01:03:37.851Z,57.23
2023-03-06T01:06:07.729Z,58.07
2023-03-06T01:08:37.714Z,58.93
2023-03-06T01:11:06.994Z,59.42
2023-03-06T01:13:35.201Z,59.97
2023-03-06T01:16:12.291Z,60.34
2023-03-06T01:18:41.846Z,60.89
2023-03-06T01:21:09.930Z,61.40
2023-03-06T01:23:39.655Z,61.61
2023-03-06T01:26:08.241Z,62.02
2023-03-06T01:28:37.756Z,62.19
2023-03-06T01:31:07.064Z,62.44
2023-03-06T01:33:35.722Z,62.61
2023-03-06T01:36:08.533Z,63.03
2023-03-06T01:38:38.077Z,63.17
2023-03-06T01:41:06.398Z,63.30
2023-03-06T01:43:35.664Z,63.56
2023-03-06T01:46:18.401Z,63.66
2023-03-06T01:48:47.096Z,63.71
2023-03-06T01:51:16.238Z,63.87
2023-03-06T01:53:44.425Z,64.01
2023-03-06T01:56:12.884Z,64.13
2023-03-06T01:58:41.359Z,64.11
2023-03-06T02:01:13.594Z,64.24
2023-03-06T02:03:41.830Z,64.43
2023-03-06T02:06:09.900Z,64.64
2023-03-06T02:08:47.376Z,64.80
2023-03-06T02:11:18.357Z,64.76
2023-03-06T02:13:49.482Z,64.88
2023-03-06T02:16:21.876Z,64.89
2023-03-06T02:18:52.207Z,65.12
2023-03-06T02:21:28.916Z,65.20
2023-03-06T02:24:07.047Z,65.21
2023-03-06T02:26:37.086Z,65.15
2023-03-06T02:29:12.339Z,65.28
2023-03-06T02:31:42.672Z,65.40
2023-03-06T02:34:16.908Z,65.49
2023-03-06T02:36:48.977Z,65.57
2023-03-06T02:39:25.368Z,65.75
2023-03-06T02:41:53.835Z,65.84
2023-03-06T02:44:23.164Z,65.70
2023-03-06T02:46:51.396Z,65.79
2023-03-06T02:49:20.696Z,65.61
2023-03-06T02:51:51.132Z,65.59
2023-03-06T02:54:19.739Z,65.58
2023-03-06T02:56:49.824Z,65.55
2023-03-06T02:59:17.908Z,65.67
2023-03-06T03:01:47.980Z,65.47
2023-03-06T03:04:16.367Z,65.52
2023-03-06T03:06:44.995Z,65.51
2023-03-06T03:09:13.316Z,65.60
2023-03-06T03:11:44.518Z,65.59
2023-03-06T03:14:13.665Z,65.54
2023-03-06T03:16:41.755Z,65.55
2023-03-06T03:19:10.098Z,65.67
2023-03-06T03:21:40.683Z,65.56
2023-03-06T03:24:09.115Z,65.63
2023-03-06T03:26:37.376Z,65.44
2023-03-06T03:29:12.050Z,65.68
2023-03-06T03:31:40.278Z,65.61
2023-03-06T03:34:08.911Z,65.62
2023-03-06T03:36:39.183Z,65.58
2023-03-06T03:39:08.219Z,65.43
2023-03-06T03:41:36.641Z,65.29
2023-03-06T03:44:07.129Z,65.48
2023-03-06T03:46:37.167Z,65.63
2023-03-06T03:49:06.249Z,65.55
2023-03-06T03:51:34.376Z,65.56
2023-03-06T03:54:03.576Z,65.62
2023-03-06T03:56:35.231Z,65.67
2023-03-06T03:59:08.716Z,65.72
2023-03-06T04:01:42.406Z,65.71
2023-03-06T04:04:10.584Z,65.76
2023-03-06T04:06:39.543Z,65.72
2023-03-06T04:09:08.050Z,65.53
2023-03-06T04:11:36.794Z,65.72
2023-03-06T04:14:04.994Z,65.81
2023-03-06T04:16:35.979Z,65.83
2023-03-06T04:19:04.583Z,65.80
2023-03-06T04:21:33.716Z,65.73
2023-03-06T04:24:02.229Z,65.84
2023-03-06T04:26:31.232Z,65.88
2023-03-06T04:29:00.307Z,65.84
2023-03-06T04:31:31.571Z,65.81
2023-03-06T04:34:00.309Z,65.75
2023-03-06T04:36:30.084Z,65.90
2023-03-06T04:39:01.935Z,65.83
2023-03-06T04:41:30.857Z,65.88
2023-03-06T04:43:59.517Z,65.81
2023-03-06T04:46:27.670Z,65.81
2023-03-06T04:48:56.512Z,65.86
2023-03-06T04:51:24.607Z,65.85
2023-03-06T04:53:54.906Z,65.91
2023-03-06T04:56:23.490Z,65.90
2023-03-06T04:58:52.987Z,66.05
2023-03-06T05:01:21.538Z,66.13
2023-03-06T05:03:50.140Z,66.15
2023-03-06T05:06:18.492Z,66.22
2023-03-06T05:08:46.554Z,66.17
2023-03-06T05:11:18.520Z,66.13
2023-03-06T05:13:47.113Z,66.06
2023-03-06T05:16:15.773Z,66.00
2023-03-06T05:18:44.693Z,65.88
2023-03-06T05:21:13.434Z,65.94
2023-03-06T05:23:41.876Z,65.84
2023-03-06T05:26:13.612Z,65.91
2023-03-06T05:28:41.693Z,65.89
2023-03-06T05:31:09.914Z,65.88
2023-03-06T05:33:41.661Z,65.74
2023-03-06T05:36:10.531Z,65.84
2023-03-06T05:38:38.631Z,65.68
2023-03-06T05:41:07.017Z,65.76
2023-03-06T05:43:35.217Z,65.65
2023-03-06T05:46:04.333Z,65.66
2023-03-06T05:48:33.054Z,65.40
2023-03-06T05:51:01.592Z,65.12
2023-03-06T05:53:30.057Z,65.04
2023-03-06T05:56:02.493Z,64.82
2023-03-06T05:58:31.180Z,64.79
2023-03-06T06:00:59.363Z,64.59
2023-03-06T06:03:27.678Z,64.74
2023-03-06T06:05:56.003Z,64.44
2023-03-06T06:08:24.264Z,64.61
2023-03-06T06:10:53.555Z,64.37
2023-03-06T06:13:24.553Z,64.06
2023-03-06T06:15:57.725Z,63.75
2023-03-06T06:18:27.474Z,63.37
2023-03-06T06:20:59.184Z,63.10
2023-03-06T06:23:27.348Z,63.16
2023-03-06T06:25:55.660Z,63.13
2023-03-06T06:28:24.297Z,63.06
2023-03-06T06:30:52.593Z,62.96
2023-03-06T06:33:21.995Z,62.87
2023-03-06T06:35:50.862Z,62.67
2023-03-06T06:38:23.168Z,62.24
2023-03-06T06:41:26.850Z,61.99
2023-03-06T06:43:42.635Z,61.90
2023-03-06T06:46:39.919Z,62.02
2023-03-06T06:49:00.232Z,62.12
2023-03-06T06:51:31.067Z,62.13
2023-03-06T06:53:59.864Z,62.16
2023-03-06T06:56:28.007Z,62.18
2023-03-06T06:59:06.881Z,62.05
2023-03-06T07:01:43.291Z,61.96
2023-03-06T07:04:13.754Z,61.75
2023-03-06T07:06:42.766Z,61.40
2023-03-06T07:09:12.304Z,61.31
2023-03-06T07:11:40.984Z,61.06
2023-03-06T07:14:09.156Z,60.47
2023-03-06T07:16:37.607Z,58.53
2023-03-06T07:19:10.057Z,55.84
2023-03-06T07:21:39.668Z,52.42
2023-03-06T07:24:09.143Z,50.30
2023-03-06T07:26:40.802Z,49.38
2023-03-06T07:29:16.161Z,49.02
2023-03-06T07:31:48.899Z,48.91
2023-03-06T07:34:18.465Z,49.10
2023-03-06T07:36:46.752Z,49.52
2023-03-06T07:39:16.451Z,49.97
2023-03-06T07:41:44.697Z,50.40
2023-03-06T07:44:16.073Z,50.79
2023-03-06T07:46:45.248Z,50.88
2023-03-06T07:49:13.607Z,51.15
2023-03-06T07:51:43.653Z,51.59
2023-03-06T07:54:11.950Z,51.56
2023-03-06T07:56:39.958Z,51.71
2023-03-06T07:59:12.957Z,51.68
2023-03-06T08:01:42.999Z,51.66
2023-03-06T08:04:11.833Z,51.74
2023-03-06T08:06:41.952Z,51.61
2023-03-06T08:09:13.891Z,52.19
2023-03-06T08:11:45.428Z,52.46
2023-03-06T08:14:20.734Z,52.79
2023-03-06T08:16:57.731Z,52.79
2023-03-06T08:19:25.867Z,52.37
2023-03-06T08:22:00.370Z,51.49
2023-03-06T08:24:30.249Z,51.49
2023-03-06T08:27:00.682Z,51.92
2023-03-06T08:29:31.479Z,52.25
2023-03-06T08:32:04.822Z,52.66
2023-03-06T08:34:34.952Z,52.83
2023-03-06T08:37:03.668Z,53.10
2023-03-06T08:39:34.527Z,53.12
2023-03-06T08:42:06.646Z,53.11
2023-03-06T08:44:35.688Z,52.80
2023-03-06T08:47:06.510Z,51.94
2023-03-06T08:49:40.878Z,51.49
2023-03-06T08:52:16.156Z,51.26
2023-03-06T08:57:31.174Z,51.15
2023-03-06T09:00:09.161Z,50.99
2023-03-06T09:02:37.791Z,50.93
2023-03-06T09:05:10.652Z,51.17
2023-03-06T09:07:40.464Z,51.15
2023-03-06T09:10:17.592Z,50.93
2023-03-06T09:12:51.379Z,50.94
2023-03-06T09:15:23.615Z,51.19
2023-03-06T09:17:54.759Z,51.28
2023-03-06T09:20:31.426Z,51.22
2023-03-06T09:22:59.887Z,50.22
2023-03-06T09:25:31.051Z,49.58
2023-03-06T09:28:11.378Z,49.52
2023-03-06T09:30:45.022Z,49.87
2023-03-06T09:33:15.036Z,49.67
2023-03-06T09:35:51.458Z,49.10
2023-03-06T09:38:20.490Z,48.85
2023-03-06T09:43:52.010Z,47.99
2023-03-06T09:46:43.515Z,48.01
2023-03-06T09:49:45.212Z,47.68
2023-03-06T09:52:26.526Z,47.25
2023-03-06T09:55:20.011Z,46.29
2023-03-06T09:57:55.630Z,45.90
2023-03-06T10:00:35.391Z,46.06
2023-03-06T10:03:14.420Z,46.00
2023-03-06T10:06:23.724Z,45.44
2023-03-06T10:09:13.185Z,45.82
2023-03-06T10:12:01.357Z,46.15
2023-03-06T10:14:42.425Z,46.42
2023-03-06T10:17:35.173Z,46.50
2023-03-06T10:20:27.443Z,46.74
2023-03-06T10:23:07.661Z,46.80
2023-03-06T10:25:48.415Z,46.58
2023-03-06T10:28:24.444Z,45.37
2023-03-06T10:31:14.225Z,44.43
2023-03-06T10:33:51.901Z,43.87
2023-03-06T10:36:22.325Z,43.31
2023-03-06T10:38:53.660Z,43.25
2023-03-06T10:41:25.978Z,43.53
2023-03-06T10:44:00.766Z,43.50
2023-03-06T10:46:36.869Z,42.11
2023-03-06T10:49:10.294Z,41.33
2023-03-06T10:51:38.309Z,41.12
2023-03-06T10:54:13.579Z,41.37
2023-03-06T10:56:46.266Z,41.29
2023-03-06T10:59:18.908Z,40.83
2023-03-06T11:01:54.528Z,40.57
2023-03-06T11:04:34.050Z,40.85
2023-03-06T11:07:28.426Z,40.87
2023-03-06T11:09:57.457Z,41.31
2023-03-06T11:12:36.683Z,41.26
2023-03-06T11:15:07.684Z,41.84
2023-03-06T11:18:04.954Z,42.18
2023-03-06T11:20:55.250Z,42.27
2023-03-06T11:23:46.675Z,41.95
2023-03-06T11:26:17.964Z,42.32
2023-03-06T11:28:48.573Z,42.71
2023-03-06T11:31:18.887Z,42.68
2023-03-06T11:33:52.511Z,42.72
2023-03-06T11:36:36.180Z,42.79
2023-03-06T11:39:16.504Z,43.02
2023-03-06T11:42:05.947Z,43.34
2023-03-06T11:45:13.639Z,42.96
2023-03-06T11:47:48.628Z,42.05
2023-03-06T11:50:18.602Z,41.07
2023-03-06T11:53:00.022Z,41.02
2023-03-06T11:56:00.595Z,40.57
2023-03-06T11:58:47.518Z,40.27
2023-03-06T12:01:47.895Z,40.13
2023-03-06T12:04:19.237Z,40.28
2023-03-06T12:07:15.670Z,39.98
2023-03-06T12:10:51.487Z,40.02
2023-03-06T12:14:00.269Z,39.70
2023-03-06T12:17:02.303Z,39.68
2023-03-06T12:20:07.970Z,39.95
2023-03-06T12:22:57.927Z,39.27
2023-03-06T12:25:57.327Z,39.41
2023-03-06T12:28:47.329Z,39.67
2023-03-06T12:31:30.864Z,39.63
2023-03-06T12:34:57.117Z,39.54
2023-03-06T12:37:36.137Z,39.69
2023-03-06T12:40:11.048Z,39.89
2023-03-06T12:43:02.013Z,39.90
2023-03-06T12:45:33.419Z,40.03
2023-03-06T12:48:02.178Z,40.43
2023-03-06T12:50:37.140Z,40.42
2023-03-06T12:53:06.141Z,40.34
2023-03-06T12:55:45.698Z,40.46
2023-03-06T12:58:38.878Z,40.19
2023-03-06T13:01:43.667Z,39.87
2023-03-06T13:04:18.641Z,39.84
2023-03-06T13:06:59.449Z,39.50
2023-03-06T13:10:02.466Z,39.61
2023-03-06T13:12:45.596Z,39.67
2023-03-06T13:15:33.631Z,39.53
2023-03-06T13:18:33.568Z,39.56
2023-03-06T13:21:09.237Z,38.51
2023-03-06T13:23:53.537Z,38.28
2023-03-06T13:26:26.128Z,38.18
2023-03-06T13:31:41.556Z,38.00
2023-03-06T13:34:34.149Z,38.02
2023-03-06T13:37:23.349Z,38.21
2023-03-06T13:39:57.764Z,37.93
2023-03-06T13:42:34.269Z,37.72
2023-03-06T13:45:30.235Z,37.70
2023-03-06T13:48:24.564Z,37.73
2023-03-06T13:50:50.793Z,37.46
2023-03-06T13:53:40.895Z,37.41
2023-03-06T13:56:34.035Z,37.65
2023-03-06T13:59:25.881Z,37.16
2023-03-06T14:01:54.407Z,37.04
2023-03-06T14:04:35.118Z,37.35
2023-03-06T14:07:20.517Z,37.44
2023-03-06T14:09:58.487Z,37.51
2023-03-06T14:12:36.568Z,37.49
2023-03-06T14:15:32.761Z,37.64
2023-03-06T14:18:21.323Z,37.99
2023-03-06T14:23:45.185Z,37.75
2023-03-06T14:26:19.206Z,37.96
2023-03-06T14:28:59.248Z,38.19
2023-03-06T14:31:32.064Z,37.97
2023-03-06T14:34:01.194Z,37.89
2023-03-06T14:36:49.152Z,37.86
2023-03-06T14:39:29.902Z,37.69
2023-03-06T14:42:16.693Z,37.59
2023-03-06T14:44:45.670Z,37.48
2023-03-06T14:47:33.075Z,37.18
2023-03-06T14:50:27.839Z,36.94
2023-03-06T14:53:09.166Z,37.18
2023-03-06T14:55:50.075Z,37.25
2023-03-06T14:58:22.364Z,37.43
2023-03-06T15:00:52.047Z,37.46
2023-03-06T15:03:57.576Z,37.58
2023-03-06T15:06:35.019Z,37.72
2023-03-06T15:09:15.557Z,37.78
2023-03-06T15:12:04.141Z,38.00
2023-03-06T15:14:35.570Z,38.20
2023-03-06T15:17:15.396Z,38.23
2023-03-06T15:19:45.944Z,38.38
2023-03-06T15:22:38.187Z,38.61
2023-03-06T15:25:20.901Z,39.14
2023-03-06T15:28:04.075Z,39.41
2023-03-06T15:30:35.855Z,39.76
2023-03-06T15:33:20.328Z,40.11
2023-03-06T15:36:02.681Z,40.69
2023-03-06T15:38:40.568Z,41.23
2023-03-06T15:41:22.686Z,41.64
2023-03-06T15:43:50.926Z,41.97
2023-03-06T15:46:19.238Z,42.29
2023-03-06T15:49:04.308Z,42.66
2023-03-06T15:51:33.277Z,43.00
2023-03-06T15:54:11.998Z,43.28
2023-03-06T15:56:42.323Z,43.46
2023-03-06T15:59:23.303Z,43.73
2023-03-06T16:01:54.871Z,44.07
2023-03-06T16:04:23.640Z,44.32
2023-03-06T16:06:52.406Z,44.53
2023-03-06T16:09:20.456Z,44.72
2023-03-06T16:11:48.842Z,44.93
2023-03-06T16:14:21.316Z,44.97
2023-03-06T16:16:51.284Z,45.20
2023-03-06T16:19:28.723Z,45.14
2023-03-06T16:21:57.217Z,44.91
2023-03-06T16:24:30.534Z,44.99
2023-03-06T16:27:01.632Z,44.91
2023-03-06T16:29:36.210Z,44.67
2023-03-06T16:32:05.555Z,44.46
2023-03-06T16:34:34.337Z,44.52
2023-03-06T16:37:03.774Z,44.18
2023-03-06T16:39:32.939Z,44.04
2023-03-06T16:42:04.759Z,44.06
2023-03-06T16:44:34.595Z,44.08
2023-03-06T16:47:02.738Z,44.17
2023-03-06T16:49:31.562Z,44.23
2023-03-06T16:51:59.673Z,44.30
2023-03-06T16:54:27.773Z,44.60
2023-03-06T16:56:55.809Z,44.77
2023-03-06T16:59:25.075Z,45.09
2023-03-06T17:01:53.785Z,45.26
2023-03-06T17:04:22.061Z,45.50
2023-03-06T17:06:55.162Z,45.70
2023-03-06T17:09:23.451Z,45.85
2023-03-06T17:11:51.634Z,46.02
2023-03-06T17:14:20.611Z,46.19
2023-03-06T17:16:48.678Z,46.26
2023-03-06T17:19:18.587Z,46.46
2023-03-06T17:21:46.864Z,46.51
2023-03-06T17:24:15.679Z,46.70
2023-03-06T17:26:47.076Z,46.90
2023-03-06T17:29:17.257Z,47.00
2023-03-06T17:31:46.566Z,47.17
2023-03-06T17:34:14.655Z,47.19
2023-03-06T17:36:44.136Z,47.58
2023-03-06T17:39:13.058Z,47.83
2023-03-06T17:41:41.978Z,48.12
2023-03-06T17:44:16.261Z,48.37
2023-03-06T17:46:44.787Z,48.72
2023-03-06T17:49:14.526Z,49.01
2023-03-06T17:51:43.805Z,49.47
2023-03-06T17:54:12.156Z,49.83
2023-03-06T17:56:40.329Z,50.26
2023-03-06T17:59:08.813Z,50.50
2023-03-06T18:01:37.286Z,50.71
2023-03-06T18:04:08.836Z,50.95
2023-03-06T18:06:37.439Z,51.15
2023-03-06T18:09:07.866Z,51.38
2023-03-06T18:11:37.451Z,51.68
2023-03-06T18:14:05.821Z,52.19
2023-03-06T18:16:53.435Z,52.44
2023-03-06T18:19:21.874Z,52.69
2023-03-06T18:21:50.103Z,52.82
2023-03-06T18:24:18.605Z,53.08
2023-03-06T18:26:47.698Z,53.77
2023-03-06T18:29:18.141Z,53.87
2023-03-06T18:31:51.581Z,53.96
2023-03-06T18:34:19.883Z,54.25
2023-03-06T18:36:51.713Z,55.01
2023-03-06T18:39:21.565Z,54.93
2023-03-06T18:41:53.810Z,54.69
2023-03-06T18:44:22.175Z,54.99
2023-03-06T18:46:50.216Z,55.33
2023-03-06T18:49:19.229Z,55.37
2023-03-06T18:51:51.420Z,55.73
2023-03-06T18:54:19.897Z,55.94
2023-03-06T18:56:48.297Z,56.02
2023-03-06T18:59:37.934Z,56.34
2023-03-06T19:02:06.117Z,56.52
2023-03-06T19:04:34.351Z,56.67
2023-03-06T19:07:06.106Z,57.17
2023-03-06T19:09:34.267Z,57.97
2023-03-06T19:12:03.656Z,57.86
2023-03-06T19:14:32.549Z,58.26
2023-03-06T19:17:02.081Z,58.11
2023-03-06T19:19:33.606Z,58.38
2023-03-06T19:22:04.916Z,58.39
2023-03-06T19:24:34.342Z,58.72
2023-03-06T19:29:44.864Z,58.78
2023-03-06T19:32:16.376Z,59.34
2023-03-06T19:34:48.866Z,59.42
2023-03-06T19:37:18.826Z,59.51
2023-03-06T19:39:46.998Z,59.55
2023-03-06T19:42:17.923Z,59.71
2023-03-06T19:44:46.025Z,60.09
2023-03-06T19:47:14.268Z,60.23
2023-03-06T19:49:42.874Z,60.76
2023-03-06T19:52:11.203Z,60.76
2023-03-06T19:54:39.385Z,60.95
2023-03-06T19:57:07.732Z,60.98
2023-03-06T19:59:38.498Z,60.96
2023-03-06T20:02:07.055Z,61.11
2023-03-06T20:04:35.410Z,61.16
2023-03-06T20:07:05.126Z,61.58
2023-03-06T20:09:35.764Z,61.72
2023-03-06T20:12:08.426Z,61.71
2023-03-06T20:14:37.457Z,61.65
2023-03-06T20:17:05.568Z,61.57
2023-03-06T20:19:35.189Z,61.51
2023-03-06T20:22:03.547Z,61.57
2023-03-06T20:24:32.019Z,61.67
2023-03-06T20:27:02.853Z,61.73
2023-03-06T20:29:31.123Z,61.65
2023-03-06T20:32:02.595Z,61.65
2023-03-06T20:34:32.200Z,61.63
2023-03-06T20:37:00.506Z,61.94
2023-03-06T20:39:30.112Z,61.98
2023-03-06T20:42:00.089Z,62.37
2023-03-06T20:44:29.426Z,62.35
2023-03-06T20:47:00.979Z,62.56
2023-03-06T20:49:33.728Z,62.38
2023-03-06T20:52:19.110Z,62.48
2023-03-06T20:54:50.930Z,62.45
2023-03-06T20:57:19.082Z,62.37
2023-03-06T20:59:47.069Z,62.47
2023-03-06T21:02:15.825Z,62.52
2023-03-06T21:04:44.473Z,62.73
2023-03-06T21:07:17.039Z,62.83
2023-03-06T21:09:45.606Z,63.07
2023-03-06T21:12:17.932Z,63.04
2023-03-06T21:14:47.599Z,63.33
2023-03-06T21:17:15.932Z,63.46
2023-03-06T21:19:46.573Z,63.48
2023-03-06T21:22:14.801Z,63.60
2023-03-06T21:24:43.987Z,63.80
2023-03-06T21:27:12.312Z,63.81
2023-03-06T21:29:40.522Z,63.99
2023-03-06T21:32:09.253Z,64.06
2023-03-06T21:34:37.876Z,64.03
2023-03-06T21:37:06.423Z,64.14
2023-03-06T21:39:37.464Z,64.16
2023-03-06T21:42:05.819Z,63.98
2023-03-06T21:44:37.644Z,64.11
2023-03-06T21:47:05.990Z,64.08
2023-03-06T21:49:35.848Z,63.93
2023-03-06T21:52:05.066Z,63.80
2023-03-06T21:54:33.164Z,63.87
2023-03-06T21:57:01.683Z,63.92
2023-03-06T21:59:30.253Z,64.15
2023-03-06T22:01:59.618Z,64.26
2023-03-06T22:04:27.977Z,64.59
2023-03-06T22:06:59.378Z,64.90
2023-03-06T22:09:29.417Z,65.10
2023-03-06T22:11:58.353Z,65.43
2023-03-06T22:14:26.605Z,65.77
2023-03-06T22:16:56.800Z,66.24
2023-03-06T22:19:25.966Z,66.30
2023-03-06T22:21:54.101Z,66.57
2023-03-06T22:24:22.129Z,66.85
2023-03-06T22:26:50.198Z,67.06
2023-03-06T22:29:18.648Z,67.18
2023-03-06T22:31:47.115Z,67.44
2023-03-06T22:34:15.550Z,67.43
2023-03-06T22:37:03.465Z,67.71
2023-03-06T22:39:31.928Z,67.82
2023-03-06T22:41:59.999Z,68.08
2023-03-06T22:44:28.213Z,68.03
2023-03-06T22:46:56.249Z,68.05
2023-03-06T22:49:24.601Z,68.07
2023-03-06T22:51:52.632Z,68.11
2023-03-06T22:54:20.821Z,68.15
2023-03-06T22:56:48.985Z,68.22
2023-03-06T22:59:17.280Z,68.07
2023-03-06T23:01:49.091Z,68.11
2023-03-06T23:04:17.484Z,68.14
2023-03-06T23:06:49.469Z,68.35
2023-03-06T23:09:20.786Z,68.51
2023-03-06T23:12:09.182Z,68.78
2023-03-06T23:14:57.007Z,69.14
2023-03-06T23:17:44.981Z,69.17
2023-03-06T23:20:33.798Z,69.19
2023-03-06T23:23:24.137Z,69.21
2023-03-06T23:25:52.434Z,69.21
2023-03-06T23:28:20.600Z,69.28
2023-03-06T23:30:49.023Z,69.44
2023-03-06T23:33:17.471Z,69.59
2023-03-06T23:35:47.961Z,69.63
2023-03-06T23:38:16.770Z,69.68
2023-03-06T23:40:45.051Z,69.67
2023-03-06T23:43:13.071Z,69.52
2023-03-06T23:45:41.311Z,69.50
2023-03-06T23:48:10.504Z,69.49
2023-03-06T23:50:40.321Z,69.61
2023-03-06T23:53:09.186Z,69.80
2023-03-06T23:55:45.045Z,69.94
2023-03-06T23:58:19.268Z,70.07
